Time;durP1;ratioP1;P1;durP2;ratioP2;P2;SDS_P1;SDS_P2;PMS_P1;PMS_P2;Temp;Humidity;BMP_temperature;BMP_pressure;BME280_temperature;BME280_humidity;BME280_pressure;Samples;Min_cycle;Max_cycle;Signal;HPM_P1;HPM_P2
2022/03/26 00:00:12;0.00;0.00;0.62;0.00;0.00;0.62;3.93;2.90;;;27.50;20.70;;;;;;2231941;62;20464;-55
2022/03/26 00:02:57;0.00;0.00;0.62;0.00;0.00;0.62;2.57;2.37;;;27.50;20.70;;;;;;2232199;62;20396;-58
2022/03/26 00:05:43;0.00;0.00;0.62;0.00;0.00;0.62;2.63;2.43;;;27.50;20.70;;;;;;2231861;62;20359;-56
2022/03/26 00:08:28;0.00;0.00;0.62;0.00;0.00;0.62;2.90;2.40;;;27.50;20.70;;;;;;2231323;62;20383;-57
2022/03/26 00:11:12;0.00;0.00;0.62;0.00;0.00;0.62;2.20;2.00;;;27.50;20.70;;;;;;2232300;62;20927;-54
2022/03/26 00:13:58;0.00;0.00;0.62;0.00;0.00;0.62;2.70;2.17;;;27.50;20.80;;;;;;2231298;62;20419;-57
2022/03/26 00:16:43;0.00;0.00;0.62;0.00;0.00;0.62;3.03;2.50;;;27.50;20.80;;;;;;2231774;62;20431;-55
2022/03/26 00:19:27;0.00;0.00;0.62;0.00;0.00;0.62;2.40;2.10;;;27.50;20.80;;;;;;2232244;62;20387;-56
2022/03/26 00:22:12;0.00;0.00;0.62;0.00;0.00;0.62;2.20;2.00;;;27.50;20.80;;;;;;2231558;62;20366;-58
2022/03/26 00:24:56;0.00;0.00;0.62;0.00;0.00;0.62;2.60;2.23;;;27.50;20.80;;;;;;2232272;62;20806;-58
2022/03/26 00:27:41;0.00;0.00;0.62;0.00;0.00;0.62;2.63;1.80;;;27.50;20.80;;;;;;2231420;62;20514;-58
2022/03/26 00:30:27;0.00;0.00;0.62;0.00;0.00;0.62;3.60;2.20;;;27.50;20.80;;;;;;2228176;62;20505;-57
2022/03/26 00:33:12;0.00;0.00;0.62;0.00;0.00;0.62;2.73;2.10;;;27.50;20.80;;;;;;2232608;62;20383;-57
2022/03/26 00:35:57;0.00;0.00;0.62;0.00;0.00;0.62;2.20;2.00;;;27.50;20.80;;;;;;2231539;62;20399;-59
2022/03/26 00:38:41;0.00;0.00;0.62;0.00;0.00;0.62;3.30;2.37;;;27.40;20.80;;;;;;2231569;62;21045;-54
2022/03/26 00:41:28;0.00;0.00;0.62;0.00;0.00;0.62;2.33;2.03;;;27.40;20.80;;;;;;2229058;62;20439;-56
2022/03/26 00:44:12;0.00;0.00;0.62;0.00;0.00;0.62;2.60;2.23;;;27.40;20.80;;;;;;2231088;62;20371;-57
2022/03/26 00:46:58;0.00;0.00;0.62;0.00;0.00;0.62;2.77;2.53;;;27.40;20.80;;;;;;2231779;62;20398;-58
2022/03/26 00:49:43;0.00;0.00;0.62;0.00;0.00;0.62;2.20;1.90;;;27.40;20.80;;;;;;2231356;62;20375;-58
2022/03/26 00:52:27;0.00;0.00;0.62;0.00;0.00;0.62;2.10;1.90;;;27.40;20.90;;;;;;2231383;62;20367;-58
2022/03/26 00:55:12;0.00;0.00;0.62;0.00;0.00;0.62;2.63;2.40;;;27.40;20.90;;;;;;2232287;62;20445;-58
2022/03/26 00:57:56;0.00;0.00;0.62;0.00;0.00;0.62;2.67;2.20;;;27.40;20.90;;;;;;2231448;62;20387;-59
2022/03/26 01:00:42;0.00;0.00;0.62;0.00;0.00;0.62;2.23;2.03;;;27.40;20.90;;;;;;2231612;62;20459;-58
2022/03/26 01:03:28;0.00;0.00;0.62;0.00;0.00;0.62;3.50;2.20;;;27.40;20.90;;;;;;2232227;62;20367;-58
2022/03/26 01:06:14;0.00;0.00;0.62;0.00;0.00;0.62;2.53;2.00;;;27.40;20.90;;;;;;2231160;62;20532;-55
2022/03/26 01:08:59;0.00;0.00;0.62;0.00;0.00;0.62;2.70;2.23;;;27.40;21.00;;;;;;2232692;62;20382;-51
2022/03/26 01:11:43;0.00;0.00;0.62;0.00;0.00;0.62;2.23;1.93;;;27.40;21.00;;;;;;2232234;62;20375;-52
2022/03/26 01:14:28;0.00;0.00;0.62;0.00;0.00;0.62;2.33;1.97;;;27.40;21.10;;;;;;2232192;62;20819;-53
2022/03/26 01:17:12;0.00;0.00;0.62;0.00;0.00;0.62;1.90;1.70;;;27.40;21.10;;;;;;2232157;62;20376;-55
2022/03/26 01:19:59;0.00;0.00;0.62;0.00;0.00;0.62;3.17;2.23;;;27.40;21.10;;;;;;2231809;62;20371;-52
2022/03/26 01:22:44;0.00;0.00;0.62;0.00;0.00;0.62;2.10;1.67;;;27.40;21.20;;;;;;2231657;62;20367;-51
2022/03/26 01:25:29;0.00;0.00;0.62;0.00;0.00;0.62;2.30;1.90;;;27.40;21.20;;;;;;2232213;62;20452;-57
2022/03/26 01:28:14;0.00;0.00;0.62;0.00;0.00;0.62;2.00;1.70;;;27.40;21.20;;;;;;2229217;62;20444;-52
2022/03/26 01:31:00;0.00;0.00;0.62;0.00;0.00;0.62;2.63;2.27;;;27.40;21.20;;;;;;2227901;62;20367;-54
2022/03/26 01:33:45;0.00;0.00;0.62;0.00;0.00;0.62;2.60;2.20;;;27.40;21.20;;;;;;2228009;62;20452;-52
2022/03/26 01:36:31;0.00;0.00;0.62;0.00;0.00;0.62;2.10;1.73;;;27.40;21.30;;;;;;2227418;62;20394;-58
2022/03/26 01:39:17;0.00;0.00;0.62;0.00;0.00;0.62;2.10;1.90;;;27.40;21.30;;;;;;2227735;62;20432;-52
2022/03/26 01:42:04;0.00;0.00;0.62;0.00;0.00;0.62;2.20;2.00;;;27.40;21.30;;;;;;2227604;62;20421;-51
2022/03/26 01:44:51;0.00;0.00;0.62;0.00;0.00;0.62;2.07;1.83;;;27.40;21.30;;;;;;2227322;62;20464;-54
2022/03/26 01:47:36;0.00;0.00;0.62;0.00;0.00;0.62;2.17;1.80;;;27.40;21.30;;;;;;2228010;62;20985;-48
2022/03/26 01:50:20;0.00;0.00;0.62;0.00;0.00;0.62;3.20;1.90;;;27.40;21.30;;;;;;2227118;62;20839;-52
2022/03/26 01:53:07;0.00;0.00;0.62;0.00;0.00;0.62;2.90;2.27;;;27.30;21.20;;;;;;2227586;62;20372;-51
2022/03/26 01:55:51;0.00;0.00;0.62;0.00;0.00;0.62;2.20;2.00;;;27.30;21.30;;;;;;2228147;62;20770;-53
2022/03/26 01:58:36;0.00;0.00;0.62;0.00;0.00;0.62;2.00;1.60;;;27.30;21.30;;;;;;2227719;62;20861;-49
2022/03/26 02:01:21;0.00;0.00;0.62;0.00;0.00;0.62;2.03;1.73;;;27.30;21.30;;;;;;2228316;62;20878;-52
2022/03/26 02:04:08;0.00;0.00;0.62;0.00;0.00;0.62;2.67;1.97;;;27.30;21.30;;;;;;2227658;62;20396;-51
2022/03/26 02:06:52;0.00;0.00;0.62;0.00;0.00;0.62;1.97;1.77;;;27.30;21.30;;;;;;2227257;62;20392;-54
2022/03/26 02:09:38;0.00;0.00;0.62;0.00;0.00;0.62;2.03;1.80;;;27.30;21.30;;;;;;2228346;62;20388;-52
2022/03/26 02:12:25;0.00;0.00;0.62;0.00;0.00;0.62;2.33;2.03;;;27.30;21.30;;;;;;2227287;62;20376;-55
2022/03/26 02:15:11;0.00;0.00;0.62;0.00;0.00;0.62;2.03;1.83;;;27.30;21.30;;;;;;2227902;62;20371;-51
2022/03/26 02:17:55;0.00;0.00;0.62;0.00;0.00;0.62;2.10;1.70;;;27.30;21.30;;;;;;2228075;62;20384;-51
2022/03/26 02:20:42;0.00;0.00;0.62;0.00;0.00;0.62;2.00;1.80;;;27.30;21.30;;;;;;2227562;62;20368;-50
2022/03/26 02:23:26;0.00;0.00;0.62;0.00;0.00;0.62;4.20;2.20;;;27.30;21.30;;;;;;2228223;62;20403;-51
2022/03/26 02:26:14;0.00;0.00;0.62;0.00;0.00;0.62;2.53;2.00;;;27.30;21.30;;;;;;2227552;62;20431;-51
2022/03/26 02:29:07;0.00;0.00;0.62;0.00;0.00;0.62;2.30;1.80;;;27.30;21.30;;;;;;2227535;62;20920;-53
2022/03/26 02:31:52;0.00;0.00;0.62;0.00;0.00;0.62;2.77;1.90;;;27.30;21.30;;;;;;2228821;62;20405;-54
2022/03/26 02:34:38;0.00;0.00;0.62;0.00;0.00;0.62;2.10;1.83;;;27.20;21.30;;;;;;2227558;62;20368;-55
2022/03/26 02:37:24;0.00;0.00;0.62;0.00;0.00;0.62;2.47;2.00;;;27.20;21.30;;;;;;2228150;62;20941;-56
2022/03/26 02:40:10;0.00;0.00;0.62;0.00;0.00;0.62;1.70;1.43;;;27.20;21.30;;;;;;2228202;62;20380;-54
2022/03/26 02:42:55;0.00;0.00;0.62;0.00;0.00;0.62;2.77;2.10;;;27.20;21.30;;;;;;2227712;62;20815;-51
2022/03/26 02:45:43;0.00;0.00;0.62;0.00;0.00;0.62;4.23;3.50;;;27.20;21.30;;;;;;2228788;62;20408;-49
2022/03/26 02:48:28;0.00;0.00;0.62;0.00;0.00;0.62;4.30;3.90;;;27.20;21.20;;;;;;2227506;62;20476;-55
2022/03/26 02:51:13;0.00;0.00;0.62;0.00;0.00;0.62;3.53;3.20;;;27.20;21.00;;;;;;2226550;62;20376;-58
2022/03/26 02:54:00;0.00;0.00;0.62;0.00;0.00;0.62;4.20;3.77;;;27.20;20.90;;;;;;2228683;62;20561;-55
2022/03/26 02:56:45;0.00;0.00;0.62;0.00;0.00;0.62;4.00;3.27;;;27.20;20.90;;;;;;2226923;62;20781;-56
2022/03/26 02:59:30;0.00;0.00;0.62;0.00;0.00;0.62;3.93;3.27;;;27.20;20.80;;;;;;2227329;62;20469;-57
2022/03/26 03:02:15;0.00;0.00;0.62;0.00;0.00;0.62;3.90;3.40;;;27.20;20.80;;;;;;2224691;62;20383;-53
2022/03/26 03:04:59;0.00;0.00;0.62;0.00;0.00;0.62;4.20;3.80;;;27.20;20.70;;;;;;2227333;62;20403;-56
2022/03/26 03:07:45;0.00;0.00;0.62;0.00;0.00;0.62;4.00;3.47;;;27.20;20.70;;;;;;2224752;62;20400;-53
2022/03/26 03:10:31;0.00;0.00;0.62;0.00;0.00;0.62;3.40;3.10;;;27.10;20.60;;;;;;2228099;62;20372;-56
2022/03/26 03:13:20;0.00;0.00;0.62;0.00;0.00;0.62;3.97;3.03;;;27.10;20.60;;;;;;2227710;62;20446;-52
2022/03/26 03:16:05;0.00;0.00;0.62;0.00;0.00;0.62;3.60;3.30;;;27.10;20.60;;;;;;2228208;62;20372;-55
2022/03/26 03:18:51;0.00;0.00;0.62;0.00;0.00;0.62;3.80;3.23;;;27.10;20.60;;;;;;2229884;62;20395;-57
2022/03/26 03:21:35;0.00;0.00;0.62;0.00;0.00;0.62;4.60;3.53;;;27.10;20.50;;;;;;2231570;62;20375;-56
2022/03/26 03:24:21;0.00;0.00;0.62;0.00;0.00;0.62;4.47;3.23;;;27.10;20.50;;;;;;2231960;62;20362;-52
2022/03/26 03:27:07;0.00;0.00;0.62;0.00;0.00;0.62;3.30;3.00;;;27.00;20.50;;;;;;2231009;62;20872;-53
2022/03/26 03:29:52;0.00;0.00;0.62;0.00;0.00;0.62;3.70;3.40;;;27.00;20.50;;;;;;2231655;62;20375;-52
2022/03/26 03:32:37;0.00;0.00;0.62;0.00;0.00;0.62;3.83;2.97;;;27.00;20.50;;;;;;2229061;62;20592;-54
2022/03/26 03:35:22;0.00;0.00;0.62;0.00;0.00;0.62;3.73;3.17;;;27.00;20.50;;;;;;2227487;62;20517;-50
2022/03/26 03:38:07;0.00;0.00;0.62;0.00;0.00;0.62;3.50;3.20;;;27.00;21.00;;;;;;2227713;62;20384;-55
2022/03/26 03:40:52;0.00;0.00;0.62;0.00;0.00;0.62;4.30;3.43;;;27.00;20.50;;;;;;2227456;62;20462;-55
2022/03/26 03:43:38;0.00;0.00;0.62;0.00;0.00;0.62;3.03;2.73;;;27.00;20.40;;;;;;2228134;62;20452;-56
2022/03/26 03:46:22;0.00;0.00;0.62;0.00;0.00;0.62;3.60;3.27;;;27.00;20.40;;;;;;2228451;62;20808;-51
2022/03/26 03:49:07;0.00;0.00;0.62;0.00;0.00;0.62;3.40;3.00;;;26.90;20.70;;;;;;2227559;62;20799;-52
2022/03/26 03:51:52;0.00;0.00;0.62;0.00;0.00;0.62;3.17;2.87;;;26.90;20.40;;;;;;2224344;62;20821;-54
2022/03/26 03:54:37;0.00;0.00;0.62;0.00;0.00;0.62;3.40;3.10;;;26.90;20.40;;;;;;2227603;62;20417;-55
2022/03/26 03:57:21;0.00;0.00;0.62;0.00;0.00;0.62;3.13;2.83;;;26.90;20.40;;;;;;2227521;62;20444;-50
2022/03/26 04:00:10;0.00;0.00;0.62;0.00;0.00;0.62;3.50;3.20;;;26.90;20.40;;;;;;2227638;62;20368;-54
2022/03/26 04:03:00;0.00;0.00;0.62;0.00;0.00;0.62;3.67;3.20;;;26.90;20.50;;;;;;2227457;62;20387;-58
2022/03/26 04:05:44;0.00;0.00;0.62;0.00;0.00;0.62;3.70;3.30;;;26.80;20.40;;;;;;2224827;62;20920;-51
2022/03/26 04:08:29;0.00;0.00;0.62;0.00;0.00;0.62;2.47;2.27;;;26.80;20.40;;;;;;2227995;62;20408;-54
2022/03/26 04:11:14;0.00;0.00;0.62;0.00;0.00;0.62;3.70;3.33;;;26.80;20.40;;;;;;2227201;62;20425;-51
2022/03/26 04:13:59;0.00;0.00;0.62;0.00;0.00;0.62;2.97;2.67;;;26.80;20.40;;;;;;2227705;62;20456;-56
2022/03/26 04:16:45;0.00;0.00;0.62;0.00;0.00;0.62;3.93;3.30;;;26.80;20.40;;;;;;2227688;62;20387;-56
2022/03/26 04:19:30;0.00;0.00;0.62;0.00;0.00;0.62;3.33;2.90;;;26.80;20.40;;;;;;2227266;62;20392;-53
2022/03/26 04:22:14;0.00;0.00;0.62;0.00;0.00;0.62;2.90;2.70;;;26.80;20.40;;;;;;2228024;62;20372;-52
2022/03/26 04:24:59;0.00;0.00;0.62;0.00;0.00;0.62;3.57;2.90;;;26.80;20.50;;;;;;2227163;62;20903;-56
2022/03/26 04:27:46;0.00;0.00;0.62;0.00;0.00;0.62;2.70;2.40;;;26.70;20.40;;;;;;2227147;62;20395;-54
2022/03/26 04:30:31;0.00;0.00;0.62;0.00;0.00;0.62;3.00;2.70;;;26.70;20.40;;;;;;2224937;62;20832;-53
2022/03/26 04:33:17;0.00;0.00;0.62;0.00;0.00;0.62;3.37;2.83;;;26.70;20.40;;;;;;2227224;62;20449;-52
2022/03/26 04:36:03;0.00;0.00;0.62;0.00;0.00;0.62;3.43;3.00;;;26.70;20.40;;;;;;2227717;62;20372;-55
2022/03/26 04:38:48;0.00;0.00;0.62;0.00;0.00;0.62;4.90;3.27;;;26.70;20.40;;;;;;2227540;62;20391;-58
2022/03/26 04:41:33;0.00;0.00;0.62;0.00;0.00;0.62;3.03;2.73;;;26.70;20.40;;;;;;2227189;62;20364;-59
2022/03/26 04:44:18;0.00;0.00;0.62;0.00;0.00;0.62;3.07;2.77;;;26.70;20.40;;;;;;2228336;62;20392;-53
2022/03/26 04:47:03;0.00;0.00;0.62;0.00;0.00;0.62;3.07;2.77;;;26.60;20.40;;;;;;2223977;62;20437;-51
2022/03/26 04:49:49;0.00;0.00;0.62;0.00;0.00;0.62;3.73;3.03;;;26.70;20.40;;;;;;2227409;62;20400;-55
2022/03/26 04:52:34;0.00;0.00;0.62;0.00;0.00;0.62;3.30;3.00;;;26.60;20.40;;;;;;2228230;62;20372;-56
2022/03/26 04:55:19;0.00;0.00;0.62;0.00;0.00;0.62;3.40;2.70;;;26.60;20.40;;;;;;2226688;62;20372;-56
2022/03/26 04:58:04;0.00;0.00;0.62;0.00;0.00;0.62;3.33;3.03;;;26.60;20.40;;;;;;2227893;62;20521;-58
2022/03/26 05:00:48;0.00;0.00;0.62;0.00;0.00;0.62;3.03;2.73;;;26.60;20.40;;;;;;2227435;62;20371;-54
2022/03/26 05:03:33;0.00;0.00;0.62;0.00;0.00;0.62;2.63;2.40;;;26.60;20.40;;;;;;2227770;62;20368;-52
2022/03/26 05:06:19;0.00;0.00;0.62;0.00;0.00;0.62;3.10;2.80;;;26.60;20.40;;;;;;2228047;62;20368;-58
2022/03/26 05:09:04;0.00;0.00;0.62;0.00;0.00;0.62;3.00;2.33;;;26.60;20.40;;;;;;2222643;62;20488;-57
2022/03/26 05:11:49;0.00;0.00;0.62;0.00;0.00;0.62;3.83;3.27;;;26.60;20.50;;;;;;2227079;62;20456;-57
2022/03/26 05:14:34;0.00;0.00;0.62;0.00;0.00;0.62;2.77;2.47;;;26.50;20.40;;;;;;2227788;62;20369;-56
2022/03/26 05:17:18;0.00;0.00;0.62;0.00;0.00;0.62;2.87;2.63;;;26.50;20.50;;;;;;2226346;62;20514;-55
2022/03/26 05:20:04;0.00;0.00;0.62;0.00;0.00;0.62;2.90;2.67;;;26.50;20.50;;;;;;2226861;62;20364;-57
2022/03/26 05:22:51;0.00;0.00;0.62;0.00;0.00;0.62;3.23;2.93;;;26.50;20.50;;;;;;2228159;62;20368;-56
2022/03/26 05:25:37;0.00;0.00;0.62;0.00;0.00;0.62;3.23;2.90;;;26.50;20.50;;;;;;2254206;59;20376;-54
2022/03/26 05:28:22;0.00;0.00;0.62;0.00;0.00;0.62;3.63;3.20;;;26.50;20.50;;;;;;2227603;62;20488;-55
2022/03/26 05:31:07;0.00;0.00;0.62;0.00;0.00;0.62;2.90;2.60;;;26.50;20.50;;;;;;2226692;62;20408;-55
2022/03/26 05:33:51;0.00;0.00;0.62;0.00;0.00;0.62;3.03;2.73;;;26.50;20.50;;;;;;2226768;62;20938;-57
2022/03/26 05:36:36;0.00;0.00;0.62;0.00;0.00;0.62;3.50;3.10;;;26.40;20.50;;;;;;2226935;62;20360;-59
2022/03/26 05:39:22;0.00;0.00;0.62;0.00;0.00;0.62;2.67;2.40;;;26.40;20.50;;;;;;2227122;62;20445;-51
2022/03/26 05:42:09;0.00;0.00;0.62;0.00;0.00;0.62;3.10;2.60;;;26.40;20.50;;;;;;2227509;62;20368;-52
2022/03/26 05:44:53;0.00;0.00;0.62;0.00;0.00;0.62;2.87;2.60;;;26.40;20.50;;;;;;2227902;62;20837;-57
2022/03/26 05:47:38;0.00;0.00;0.62;0.00;0.00;0.62;4.00;3.10;;;26.40;20.50;;;;;;2226585;62;20929;-55
2022/03/26 05:50:23;0.00;0.00;0.62;0.00;0.00;0.62;3.23;2.93;;;26.40;20.50;;;;;;2227327;62;20372;-57
2022/03/26 05:53:07;0.00;0.00;0.62;0.00;0.00;0.62;4.27;2.80;;;26.40;20.50;;;;;;2227593;62;20392;-57
2022/03/26 05:55:35;0.00;0.00;0.62;0.00;0.00;0.62;3.60;2.87;;;26.30;20.50;;;;;;2227569;62;20446;-58
2022/03/26 05:58:01;0.00;0.00;0.62;0.00;0.00;0.62;3.90;3.03;;;26.30;20.50;;;;;;2227799;62;20449;-59
2022/03/26 06:00:27;0.00;0.00;0.62;0.00;0.00;0.62;3.10;2.77;;;26.30;20.50;;;;;;2227375;62;20357;-59
2022/03/26 06:02:53;0.00;0.00;0.62;0.00;0.00;0.62;3.80;3.17;;;26.30;20.50;;;;;;2226863;62;20357;-58
2022/03/26 06:05:38;0.00;0.00;0.62;0.00;0.00;0.62;3.10;2.80;;;26.30;20.50;;;;;;2228126;62;20765;-57
2022/03/26 06:08:23;0.00;0.00;0.62;0.00;0.00;0.62;3.83;2.90;;;26.40;20.60;;;;;;2227282;62;20460;-59
2022/03/26 06:11:09;0.00;0.00;0.62;0.00;0.00;0.62;2.87;2.50;;;26.30;20.50;;;;;;2227336;62;20432;-58
2022/03/26 06:13:53;0.00;0.00;0.62;0.00;0.00;0.62;3.80;2.83;;;26.30;20.60;;;;;;2228220;62;20383;-55
2022/03/26 06:16:38;0.00;0.00;0.62;0.00;0.00;0.62;3.50;3.20;;;26.30;20.50;;;;;;2226975;62;20413;-55
2022/03/26 06:19:24;0.00;0.00;0.62;0.00;0.00;0.62;3.83;2.90;;;26.30;20.60;;;;;;2227489;62;20400;-55
2022/03/26 06:22:09;0.00;0.00;0.62;0.00;0.00;0.62;3.00;2.50;;;26.30;20.60;;;;;;2227948;62;20777;-58
2022/03/26 06:24:54;0.00;0.00;0.62;0.00;0.00;0.62;3.90;3.37;;;26.30;20.50;;;;;;2227538;62;20937;-54
2022/03/26 06:27:40;0.00;0.00;0.62;0.00;0.00;0.62;3.37;2.70;;;26.30;20.60;;;;;;2227975;62;20414;-52
2022/03/26 06:30:25;0.00;0.00;0.62;0.00;0.00;0.62;3.27;3.00;;;26.30;20.60;;;;;;2228001;62;20373;-53
2022/03/26 06:33:11;0.00;0.00;0.62;0.00;0.00;0.62;3.77;3.00;;;26.30;20.60;;;;;;2226890;62;20408;-54
2022/03/26 06:35:56;0.00;0.00;0.62;0.00;0.00;0.62;3.17;2.87;;;26.20;20.50;;;;;;2227567;62;20381;-53
2022/03/26 06:38:44;0.00;0.00;0.62;0.00;0.00;0.62;4.30;3.03;;;26.20;20.50;;;;;;2223338;62;20392;-55
2022/03/26 06:41:29;0.00;0.00;0.62;0.00;0.00;0.62;3.17;2.73;;;26.20;20.50;;;;;;2226823;62;20384;-54
2022/03/26 06:44:15;0.00;0.00;0.62;0.00;0.00;0.62;2.70;2.50;;;26.20;20.50;;;;;;2227302;62;20913;-55
2022/03/26 06:47:00;0.00;0.00;0.62;0.00;0.00;0.62;3.37;2.67;;;26.20;20.50;;;;;;2226514;62;20483;-54
2022/03/26 06:49:44;0.00;0.00;0.62;0.00;0.00;0.62;3.30;3.00;;;26.20;20.50;;;;;;2227147;62;20368;-56
2022/03/26 06:52:29;0.00;0.00;0.62;0.00;0.00;0.62;3.60;2.83;;;26.20;20.50;;;;;;2226667;62;20945;-53
2022/03/26 06:55:13;0.00;0.00;0.62;0.00;0.00;0.62;2.70;2.23;;;26.20;20.50;;;;;;2226009;62;20396;-56
2022/03/26 06:57:58;0.00;0.00;0.62;0.00;0.00;0.62;3.63;3.10;;;26.20;20.60;;;;;;2227137;62;20384;-56
2022/03/26 07:00:44;0.00;0.00;0.62;0.00;0.00;0.62;3.37;3.07;;;26.20;20.50;;;;;;2223862;62;20425;-52
2022/03/26 07:03:29;0.00;0.00;0.62;0.00;0.00;0.62;3.33;2.80;;;26.20;20.50;;;;;;2226478;62;20404;-55
2022/03/26 07:06:15;0.00;0.00;0.62;0.00;0.00;0.62;3.00;2.63;;;26.20;20.50;;;;;;2228683;62;20469;-52
2022/03/26 07:09:00;0.00;0.00;0.62;0.00;0.00;0.62;8.37;6.53;;;26.20;20.60;;;;;;2224600;62;20412;-56
2022/03/26 07:11:45;0.00;0.00;0.62;0.00;0.00;0.62;9.63;8.60;;;26.20;20.50;;;;;;2227333;62;20375;-56
2022/03/26 07:14:29;0.00;0.00;0.62;0.00;0.00;0.62;10.17;7.23;;;26.10;20.30;;;;;;2227333;62;20465;-59
2022/03/26 07:17:18;0.00;0.00;0.62;0.00;0.00;0.62;8.30;7.23;;;26.10;20.30;;;;;;2227295;62;20388;-55
2022/03/26 07:20:05;0.00;0.00;0.62;0.00;0.00;0.62;8.50;7.50;;;26.00;20.20;;;;;;2228068;62;20404;-57
2022/03/26 07:22:50;0.00;0.00;0.62;0.00;0.00;0.62;11.10;9.90;;;26.00;20.20;;;;;;2227148;62;20444;-54
2022/03/26 07:25:34;0.00;0.00;0.62;0.00;0.00;0.62;11.63;9.03;;;26.00;20.20;;;;;;2224685;62;20387;-55
2022/03/26 07:28:19;0.00;0.00;0.62;0.00;0.00;0.62;11.70;9.60;;;25.90;20.70;;;;;;2228198;62;20408;-51
2022/03/26 07:31:06;0.00;0.00;0.62;0.00;0.00;0.62;12.20;10.40;;;25.90;20.10;;;;;;2649293;46;20402;-57
2022/03/26 07:33:52;0.00;0.00;0.62;0.00;0.00;0.62;10.80;9.50;;;25.90;20.10;;;;;;2223912;62;20434;-56
2022/03/26 07:36:37;0.00;0.00;0.62;0.00;0.00;0.62;10.60;9.50;;;25.80;20.10;;;;;;2223779;62;20499;-57
2022/03/26 07:39:21;0.00;0.00;0.62;0.00;0.00;0.62;13.43;10.27;;;25.80;20.20;;;;;;2223448;62;20425;-58
2022/03/26 07:42:07;0.00;0.00;0.62;0.00;0.00;0.62;10.80;9.70;;;25.80;20.20;;;;;;2224195;62;20364;-57
2022/03/26 07:44:52;0.00;0.00;0.62;0.00;0.00;0.62;13.30;11.33;;;25.80;20.30;;;;;;2223834;62;20466;-55
2022/03/26 07:47:37;0.00;0.00;0.62;0.00;0.00;0.62;12.60;11.30;;;25.70;20.20;;;;;;2223639;62;20505;-55
2022/03/26 07:50:23;0.00;0.00;0.62;0.00;0.00;0.62;17.13;14.50;;;25.70;20.20;;;;;;2224469;62;20369;-57
2022/03/26 07:53:07;0.00;0.00;0.62;0.00;0.00;0.62;16.90;12.63;;;25.70;20.00;;;;;;2224349;62;20373;-56
2022/03/26 07:55:52;0.00;0.00;0.62;0.00;0.00;0.62;12.80;11.00;;;25.60;19.80;;;;;;2225010;62;20376;-55
2022/03/26 07:58:37;0.00;0.00;0.62;0.00;0.00;0.62;16.40;11.60;;;25.60;19.90;;;;;;2224187;62;20404;-54
2022/03/26 08:01:21;0.00;0.00;0.62;0.00;0.00;0.62;14.10;10.83;;;25.50;20.00;;;;;;2223707;62;20433;-56
2022/03/26 08:04:06;0.00;0.00;0.62;0.00;0.00;0.62;13.20;11.90;;;25.50;20.00;;;;;;2225394;62;20772;-55
2022/03/26 08:06:52;0.00;0.00;0.62;0.00;0.00;0.62;12.60;11.00;;;25.50;20.10;;;;;;2223186;62;20401;-55
2022/03/26 08:09:37;0.00;0.00;0.62;0.00;0.00;0.62;13.80;10.80;;;25.50;20.10;;;;;;2220705;62;20456;-54
2022/03/26 08:12:21;0.00;0.00;0.62;0.00;0.00;0.62;12.63;11.27;;;25.50;20.10;;;;;;2221038;62;20790;-58
2022/03/26 08:15:07;0.00;0.00;0.62;0.00;0.00;0.62;12.17;10.70;;;25.50;20.20;;;;;;2226764;62;20380;-56
2022/03/26 08:17:52;0.00;0.00;0.62;0.00;0.00;0.62;11.30;9.90;;;25.40;20.20;;;;;;2227758;62;20387;-55
2022/03/26 08:20:36;0.00;0.00;0.62;0.00;0.00;0.62;15.13;10.30;;;25.40;20.20;;;;;;2227952;62;20405;-58
2022/03/26 08:23:22;0.00;0.00;0.62;0.00;0.00;0.62;10.67;9.67;;;25.40;20.20;;;;;;2225392;62;20368;-55
2022/03/26 08:26:19;0.00;0.00;0.62;0.00;0.00;0.62;15.47;10.17;;;25.40;20.30;;;;;;2228758;62;20380;-57
2022/03/26 08:29:04;0.00;0.00;0.62;0.00;0.00;0.62;10.00;9.00;;;25.50;20.30;;;;;;2228051;62;20407;-55
2022/03/26 08:31:49;0.00;0.00;0.62;0.00;0.00;0.62;11.93;10.73;;;25.50;20.30;;;;;;2228112;62;20937;-57
2022/03/26 08:34:34;0.00;0.00;0.62;0.00;0.00;0.62;10.70;9.60;;;25.40;20.30;;;;;;2229304;62;20441;-54
2022/03/26 08:37:18;0.00;0.00;0.62;0.00;0.00;0.62;13.33;10.50;;;25.40;20.30;;;;;;2227801;62;20429;-53
2022/03/26 08:40:07;0.00;0.00;0.62;0.00;0.00;0.62;11.70;10.47;;;25.40;20.30;;;;;;2228293;62;20407;-57
2022/03/26 08:42:52;0.00;0.00;0.62;0.00;0.00;0.62;14.37;11.27;;;25.50;20.30;;;;;;2228861;62;20437;-57
2022/03/26 08:45:36;0.00;0.00;0.62;0.00;0.00;0.62;12.00;10.73;;;25.50;20.30;;;;;;2231944;62;20395;-54
2022/03/26 08:48:21;0.00;0.00;0.62;0.00;0.00;0.62;12.17;10.50;;;25.40;20.40;;;;;;2230651;62;20398;-53
2022/03/26 08:51:06;0.00;0.00;0.62;0.00;0.00;0.62;11.80;9.77;;;25.50;20.40;;;;;;2231487;62;20416;-54
2022/03/26 08:53:50;0.00;0.00;0.62;0.00;0.00;0.62;11.90;9.47;;;25.50;20.40;;;;;;2231271;62;20436;-55
2022/03/26 08:56:36;0.00;0.00;0.62;0.00;0.00;0.62;10.10;9.07;;;25.50;20.40;;;;;;2232233;62;20463;-54
2022/03/26 08:59:23;0.00;0.00;0.62;0.00;0.00;0.62;11.70;10.17;;;25.50;20.40;;;;;;2231298;62;20804;-55
2022/03/26 09:02:07;0.00;0.00;0.62;0.00;0.00;0.62;9.80;8.80;;;25.50;20.40;;;;;;2229546;62;20455;-56
2022/03/26 09:04:52;0.00;0.00;0.62;0.00;0.00;0.62;10.43;9.33;;;25.50;20.40;;;;;;2233795;62;20516;-51
2022/03/26 09:07:37;0.00;0.00;0.62;0.00;0.00;0.62;10.10;9.13;;;25.50;20.40;;;;;;2232282;62;20422;-54
2022/03/26 09:10:22;0.00;0.00;0.62;0.00;0.00;0.62;11.50;9.80;;;25.50;20.40;;;;;;2233059;62;20420;-54
2022/03/26 09:13:10;0.00;0.00;0.62;0.00;0.00;0.62;12.13;10.20;;;25.50;20.40;;;;;;2232476;62;20362;-53
2022/03/26 09:15:54;0.00;0.00;0.62;0.00;0.00;0.62;15.83;11.63;;;25.50;20.40;;;;;;2228273;62;20423;-51
2022/03/26 09:18:39;0.00;0.00;0.62;0.00;0.00;0.62;13.70;11.03;;;25.50;20.40;;;;;;2232070;62;20395;-56
2022/03/26 09:21:24;0.00;0.00;0.62;0.00;0.00;0.62;12.63;11.30;;;25.50;20.30;;;;;;2231321;62;20371;-56
2022/03/26 09:24:08;0.00;0.00;0.62;0.00;0.00;0.62;12.27;9.70;;;25.50;20.30;;;;;;2228535;62;20457;-55
2022/03/26 09:26:52;0.00;0.00;0.62;0.00;0.00;0.62;13.00;9.57;;;25.50;20.30;;;;;;2224934;62;20392;-57
2022/03/26 09:29:38;0.00;0.00;0.62;0.00;0.00;0.62;12.13;9.10;;;25.50;20.30;;;;;;2227204;62;20913;-55
2022/03/26 09:32:23;0.00;0.00;0.62;0.00;0.00;0.62;12.70;9.50;;;25.60;20.40;;;;;;2227836;62;20509;-55
2022/03/26 09:35:08;0.00;0.00;0.62;0.00;0.00;0.62;9.60;8.60;;;25.50;20.40;;;;;;2227505;62;20433;-55
2022/03/26 09:37:53;0.00;0.00;0.62;0.00;0.00;0.62;9.80;8.90;;;25.60;20.50;;;;;;2227932;62;20845;-58
2022/03/26 09:40:42;0.00;0.00;0.62;0.00;0.00;0.62;8.77;7.97;;;25.60;20.50;;;;;;2228074;62;20383;-58
2022/03/26 09:43:28;0.00;0.00;0.62;0.00;0.00;0.62;9.87;8.87;;;25.60;20.50;;;;;;2224043;62;20784;-55
2022/03/26 09:46:15;0.00;0.00;0.62;0.00;0.00;0.62;9.50;8.50;;;25.60;20.50;;;;;;2228051;62;20372;-54
2022/03/26 09:49:00;0.00;0.00;0.62;0.00;0.00;0.62;8.97;7.60;;;25.60;20.50;;;;;;2228024;62;20965;-53
2022/03/26 09:51:44;0.00;0.00;0.62;0.00;0.00;0.62;9.30;8.50;;;25.60;20.50;;;;;;2227123;62;20411;-58
2022/03/26 09:54:29;0.00;0.00;0.62;0.00;0.00;0.62;8.10;7.30;;;25.70;20.60;;;;;;2227766;62;20456;-55
2022/03/26 09:57:13;0.00;0.00;0.62;0.00;0.00;0.62;8.57;7.60;;;25.70;20.60;;;;;;2226896;62;20400;-54
2022/03/26 09:59:58;0.00;0.00;0.62;0.00;0.00;0.62;8.30;7.50;;;25.70;20.60;;;;;;2227380;62;20472;-52
2022/03/26 10:02:44;0.00;0.00;0.62;0.00;0.00;0.62;9.30;7.97;;;25.70;20.60;;;;;;2227930;62;20395;-52
2022/03/26 10:05:33;0.00;0.00;0.62;0.00;0.00;0.62;12.67;8.90;;;25.70;20.50;;;;;;2228117;62;20376;-52
2022/03/26 10:08:21;0.00;0.00;0.62;0.00;0.00;0.62;9.57;8.57;;;25.70;20.60;;;;;;2228156;62;20396;-53
2022/03/26 10:11:09;0.00;0.00;0.62;0.00;0.00;0.62;9.97;8.97;;;25.80;20.60;;;;;;2228440;62;20796;-54
2022/03/26 10:13:55;0.00;0.00;0.62;0.00;0.00;0.62;8.60;7.70;;;25.80;20.70;;;;;;2227647;62;21122;-52
2022/03/26 10:16:50;0.00;0.00;0.62;0.00;0.00;0.62;10.80;7.63;;;25.80;20.70;;;;;;2228352;62;20368;-56
2022/03/26 10:19:40;0.00;0.00;0.62;0.00;0.00;0.62;10.57;7.73;;;25.80;20.70;;;;;;2227370;62;20477;-53
2022/03/26 10:22:32;0.00;0.00;0.62;0.00;0.00;0.62;9.93;8.93;;;25.80;20.70;;;;;;2227797;62;20469;-55
2022/03/26 10:25:20;0.00;0.00;0.62;0.00;0.00;0.62;10.30;9.10;;;25.90;20.80;;;;;;2228429;62;20421;-57
2022/03/26 10:28:05;0.00;0.00;0.62;0.00;0.00;0.62;9.77;7.43;;;25.90;20.80;;;;;;2227362;62;20453;-57
2022/03/26 10:34:09;0.00;0.00;0.62;0.00;0.00;0.62;7.10;6.23;;;25.90;21.00;;;;;;2228503;62;20372;-53
2022/03/26 10:37:00;0.00;0.00;0.62;0.00;0.00;0.62;12.50;6.60;;;25.90;21.10;;;;;;2227972;62;20397;-55
2022/03/26 10:39:44;0.00;0.00;0.62;0.00;0.00;0.62;8.67;7.57;;;26.00;21.30;;;;;;2228382;62;20841;-55
2022/03/26 10:42:31;0.00;0.00;0.62;0.00;0.00;0.62;7.97;7.27;;;26.00;21.20;;;;;;2228001;62;20368;-52
2022/03/26 10:45:15;0.00;0.00;0.62;0.00;0.00;0.62;8.77;7.60;;;26.00;21.00;;;;;;2227760;62;20508;-53
2022/03/26 10:48:02;0.00;0.00;0.62;0.00;0.00;0.62;7.93;7.13;;;26.00;21.00;;;;;;2228857;62;20451;-56
2022/03/26 10:50:46;0.00;0.00;0.62;0.00;0.00;0.62;7.50;6.80;;;26.10;21.10;;;;;;2231279;62;20463;-55
2022/03/26 10:53:37;0.00;0.00;0.62;0.00;0.00;0.62;7.73;6.87;;;26.10;21.10;;;;;;2231941;62;20881;-53